sensor_id;sensor_type;location;lat;lon;timestamp;temperature;humidity
70145;DHT22;57510;51.068;3.872;2022-12-18T00:02:15;-3.50;99.90
70145;DHT22;57510;51.068;3.872;2022-12-18T00:04:41;-3.50;99.90
70145;DHT22;57510;51.068;3.872;2022-12-18T00:07:06;-3.60;99.80
70145;DHT22;57510;51.068;3.872;2022-12-18T00:09:33;-3.60;99.90
70145;DHT22;57510;51.068;3.872;2022-12-18T00:11:58;-3.60;99.90
70145;DHT22;57510;51.068;3.872;2022-12-18T00:14:24;-3.60;99.90
70145;DHT22;57510;51.068;3.872;2022-12-18T00:16:50;-3.70;99.90
70145;DHT22;57510;51.068;3.872;2022-12-18T00:19:16;-3.70;99.90
70145;DHT22;57510;51.068;3.872;2022-12-18T00:21:43;-3.70;99.90
70145;DHT22;57510;51.068;3.872;2022-12-18T00:24:09;-3.80;99.90
70145;DHT22;57510;51.068;3.872;2022-12-18T00:26:35;-3.80;99.90
70145;DHT22;57510;51.068;3.872;2022-12-18T00:29:06;-3.70;99.90
70145;DHT22;57510;51.068;3.872;2022-12-18T00:31:32;-3.80;99.90
70145;DHT22;57510;51.068;3.872;2022-12-18T00:33:58;-3.80;99.90
70145;DHT22;57510;51.068;3.872;2022-12-18T00:36:25;-3.80;99.90
70145;DHT22;57510;51.068;3.872;2022-12-18T00:38:51;-3.80;99.90
70145;DHT22;57510;51.068;3.872;2022-12-18T00:41:17;-3.80;99.90
70145;DHT22;57510;51.068;3.872;2022-12-18T00:44:02;-3.90;99.90
70145;DHT22;57510;51.068;3.872;2022-12-18T00:46:28;-3.90;99.90
70145;DHT22;57510;51.068;3.872;2022-12-18T00:48:53;-3.80;99.90
70145;DHT22;57510;51.068;3.872;2022-12-18T00:51:19;-3.80;99.90
70145;DHT22;57510;51.068;3.872;2022-12-18T00:53:45;-3.80;99.90
70145;DHT22;57510;51.068;3.872;2022-12-18T00:56:11;-3.80;99.90
70145;DHT22;57510;51.068;3.872;2022-12-18T00:58:36;-3.80;99.90
70145;DHT22;57510;51.068;3.872;2022-12-18T01:01:06;-3.90;99.90
70145;DHT22;57510;51.068;3.872;2022-12-18T01:03:32;-3.90;99.90
70145;DHT22;57510;51.068;3.872;2022-12-18T01:05:58;-3.90;99.90
70145;DHT22;57510;51.068;3.872;2022-12-18T01:08:24;-3.90;99.90
70145;DHT22;57510;51.068;3.872;2022-12-18T01:10:50;-3.90;99.90
70145;DHT22;57510;51.068;3.872;2022-12-18T01:13:16;-3.90;99.90
70145;DHT22;57510;51.068;3.872;2022-12-18T01:15:48;-3.90;99.90
70145;DHT22;57510;51.068;3.872;2022-12-18T01:18:17;-4.00;99.90
70145;DHT22;57510;51.068;3.872;2022-12-18T01:20:43;-4.00;99.80
70145;DHT22;57510;51.068;3.872;2022-12-18T01:23:09;-4.00;99.80
70145;DHT22;57510;51.068;3.872;2022-12-18T01:25:37;-4.00;99.80
70145;DHT22;57510;51.068;3.872;2022-12-18T01:28:03;-4.00;99.80
70145;DHT22;57510;51.068;3.872;2022-12-18T01:30:29;-4.00;99.70
70145;DHT22;57510;51.068;3.872;2022-12-18T01:32:55;-4.00;99.60
70145;DHT22;57510;51.068;3.872;2022-12-18T01:35:21;-4.00;99.40
70145;DHT22;57510;51.068;3.872;2022-12-18T01:37:46;-4.00;99.40
70145;DHT22;57510;51.068;3.872;2022-12-18T01:40:12;-4.00;99.30
70145;DHT22;57510;51.068;3.872;2022-12-18T01:42:38;-4.00;99.30
70145;DHT22;57510;51.068;3.872;2022-12-18T01:45:21;-4.00;99.20
70145;DHT22;57510;51.068;3.872;2022-12-18T01:47:49;-4.00;99.00
70145;DHT22;57510;51.068;3.872;2022-12-18T01:50:38;-4.00;99.00
70145;DHT22;57510;51.068;3.872;2022-12-18T01:53:07;-4.00;98.90
70145;DHT22;57510;51.068;3.872;2022-12-18T01:55:40;-4.00;98.90
70145;DHT22;57510;51.068;3.872;2022-12-18T01:58:08;-4.00;98.90
70145;DHT22;57510;51.068;3.872;2022-12-18T02:00:33;-4.00;98.80
70145;DHT22;57510;51.068;3.872;2022-12-18T02:02:59;-4.10;98.80
70145;DHT22;57510;51.068;3.872;2022-12-18T02:08:12;-4.10;99.00
70145;DHT22;57510;51.068;3.872;2022-12-18T02:10:54;-4.10;99.00
70145;DHT22;57510;51.068;3.872;2022-12-18T02:18:27;-4.20;98.80
70145;DHT22;57510;51.068;3.872;2022-12-18T02:20:56;-4.20;98.90
70145;DHT22;57510;51.068;3.872;2022-12-18T02:28:17;-4.30;98.80
70145;DHT22;57510;51.068;3.872;2022-12-18T02:30:44;-4.30;98.90
70145;DHT22;57510;51.068;3.872;2022-12-18T02:33:11;-4.40;98.90
70145;DHT22;57510;51.068;3.872;2022-12-18T02:35:38;-4.30;98.90
70145;DHT22;57510;51.068;3.872;2022-12-18T02:38:05;-4.40;99.20
70145;DHT22;57510;51.068;3.872;2022-12-18T02:40:31;-4.40;99.60
70145;DHT22;57510;51.068;3.872;2022-12-18T02:43:11;-4.40;99.70
70145;DHT22;57510;51.068;3.872;2022-12-18T02:45:45;-4.40;99.70
70145;DHT22;57510;51.068;3.872;2022-12-18T02:48:11;-4.40;99.80
70145;DHT22;57510;51.068;3.872;2022-12-18T02:50:50;-4.40;99.80
70145;DHT22;57510;51.068;3.872;2022-12-18T02:53:22;-4.30;99.80
70145;DHT22;57510;51.068;3.872;2022-12-18T03:03:19;-4.30;99.50
70145;DHT22;57510;51.068;3.872;2022-12-18T03:05:50;-4.30;99.50
70145;DHT22;57510;51.068;3.872;2022-12-18T03:08:21;-4.30;99.50
70145;DHT22;57510;51.068;3.872;2022-12-18T03:10:53;-4.30;99.40
70145;DHT22;57510;51.068;3.872;2022-12-18T03:13:24;-4.20;99.40
70145;DHT22;57510;51.068;3.872;2022-12-18T03:15:51;-4.20;99.30
70145;DHT22;57510;51.068;3.872;2022-12-18T03:20:46;-4.30;99.20
70145;DHT22;57510;51.068;3.872;2022-12-18T03:23:13;-4.30;99.10
70145;DHT22;57510;51.068;3.872;2022-12-18T03:25:42;-4.30;99.30
70145;DHT22;57510;51.068;3.872;2022-12-18T03:28:13;-4.40;99.70
70145;DHT22;57510;51.068;3.872;2022-12-18T03:30:40;-4.40;99.90
70145;DHT22;57510;51.068;3.872;2022-12-18T03:33:08;-4.40;99.90
70145;DHT22;57510;51.068;3.872;2022-12-18T03:35:35;-4.40;99.90
70145;DHT22;57510;51.068;3.872;2022-12-18T03:38:03;-4.40;99.90
70145;DHT22;57510;51.068;3.872;2022-12-18T03:40:37;-4.40;99.90
70145;DHT22;57510;51.068;3.872;2022-12-18T03:43:18;-4.40;99.90
70145;DHT22;57510;51.068;3.872;2022-12-18T03:45:48;-4.40;99.90
70145;DHT22;57510;51.068;3.872;2022-12-18T03:48:17;-4.40;99.90
70145;DHT22;57510;51.068;3.872;2022-12-18T03:53:37;-4.40;99.90
70145;DHT22;57510;51.068;3.872;2022-12-18T03:56:04;-4.40;99.90
70145;DHT22;57510;51.068;3.872;2022-12-18T03:58:31;-4.40;99.90
70145;DHT22;57510;51.068;3.872;2022-12-18T04:00:59;-4.40;99.90
70145;DHT22;57510;51.068;3.872;2022-12-18T04:03:26;-4.40;99.90
70145;DHT22;57510;51.068;3.872;2022-12-18T04:05:53;-4.40;99.90
70145;DHT22;57510;51.068;3.872;2022-12-18T04:08:20;-4.40;99.90
70145;DHT22;57510;51.068;3.872;2022-12-18T04:10:47;-4.40;99.90
70145;DHT22;57510;51.068;3.872;2022-12-18T04:13:15;-4.40;99.90
70145;DHT22;57510;51.068;3.872;2022-12-18T04:15:46;-4.40;99.90
70145;DHT22;57510;51.068;3.872;2022-12-18T04:18:12;-4.40;99.90
70145;DHT22;57510;51.068;3.872;2022-12-18T04:20:37;-4.40;99.90
70145;DHT22;57510;51.068;3.872;2022-12-18T04:23:02;-4.40;99.90
70145;DHT22;57510;51.068;3.872;2022-12-18T04:25:34;-4.40;99.90
70145;DHT22;57510;51.068;3.872;2022-12-18T04:28:00;-4.40;99.90
70145;DHT22;57510;51.068;3.872;2022-12-18T04:30:25;-4.40;99.80
70145;DHT22;57510;51.068;3.872;2022-12-18T04:32:51;-4.50;99.80
70145;DHT22;57510;51.068;3.872;2022-12-18T04:35:17;-4.50;99.80
70145;DHT22;57510;51.068;3.872;2022-12-18T04:37:43;-4.50;99.90
70145;DHT22;57510;51.068;3.872;2022-12-18T04:40:08;-4.50;99.90
70145;DHT22;57510;51.068;3.872;2022-12-18T04:42:35;-4.50;99.90
70145;DHT22;57510;51.068;3.872;2022-12-18T04:45:00;-4.50;99.90
70145;DHT22;57510;51.068;3.872;2022-12-18T04:47:26;-4.50;99.90
70145;DHT22;57510;51.068;3.872;2022-12-18T04:49:51;-4.50;99.90
70145;DHT22;57510;51.068;3.872;2022-12-18T04:52:17;-4.50;99.90
70145;DHT22;57510;51.068;3.872;2022-12-18T04:54:43;-4.50;99.90
70145;DHT22;57510;51.068;3.872;2022-12-18T04:57:08;-4.50;99.90
70145;DHT22;57510;51.068;3.872;2022-12-18T04:59:34;-4.50;99.90
70145;DHT22;57510;51.068;3.872;2022-12-18T05:01:59;-4.50;99.90
70145;DHT22;57510;51.068;3.872;2022-12-18T05:04:25;-4.40;99.90
70145;DHT22;57510;51.068;3.872;2022-12-18T05:06:51;-4.30;99.90
70145;DHT22;57510;51.068;3.872;2022-12-18T05:09:17;-4.40;99.90
70145;DHT22;57510;51.068;3.872;2022-12-18T05:11:42;-4.40;99.90
70145;DHT22;57510;51.068;3.872;2022-12-18T05:14:08;-4.40;99.90
70145;DHT22;57510;51.068;3.872;2022-12-18T05:16:33;-4.40;99.90
70145;DHT22;57510;51.068;3.872;2022-12-18T05:18:59;-4.40;99.90
70145;DHT22;57510;51.068;3.872;2022-12-18T05:21:24;-4.40;99.90
70145;DHT22;57510;51.068;3.872;2022-12-18T05:23:50;-4.40;99.90
70145;DHT22;57510;51.068;3.872;2022-12-18T05:26:16;-4.30;99.90
70145;DHT22;57510;51.068;3.872;2022-12-18T05:28:42;-4.30;99.80
70145;DHT22;57510;51.068;3.872;2022-12-18T05:31:08;-4.30;99.90
70145;DHT22;57510;51.068;3.872;2022-12-18T05:33:34;-4.30;99.80
70145;DHT22;57510;51.068;3.872;2022-12-18T05:36:00;-4.30;99.70
70145;DHT22;57510;51.068;3.872;2022-12-18T05:38:26;-4.30;99.70
70145;DHT22;57510;51.068;3.872;2022-12-18T05:40:53;-4.30;99.70
70145;DHT22;57510;51.068;3.872;2022-12-18T05:43:19;-4.20;99.60
70145;DHT22;57510;51.068;3.872;2022-12-18T05:45:45;-4.20;99.50
70145;DHT22;57510;51.068;3.872;2022-12-18T05:48:11;-4.20;99.40
70145;DHT22;57510;51.068;3.872;2022-12-18T05:50:37;-4.20;99.20
70145;DHT22;57510;51.068;3.872;2022-12-18T05:53:03;-4.20;99.30
70145;DHT22;57510;51.068;3.872;2022-12-18T05:55:32;-4.20;99.30
70145;DHT22;57510;51.068;3.872;2022-12-18T05:58:00;-4.10;99.20
70145;DHT22;57510;51.068;3.872;2022-12-18T06:00:26;-4.10;99.10
70145;DHT22;57510;51.068;3.872;2022-12-18T06:02:52;-4.10;99.10
70145;DHT22;57510;51.068;3.872;2022-12-18T06:05:18;-4.10;99.00
70145;DHT22;57510;51.068;3.872;2022-12-18T06:07:43;-4.10;98.90
70145;DHT22;57510;51.068;3.872;2022-12-18T06:10:10;-4.20;99.00
70145;DHT22;57510;51.068;3.872;2022-12-18T06:12:36;-4.10;99.00
70145;DHT22;57510;51.068;3.872;2022-12-18T06:15:01;-4.10;98.90
70145;DHT22;57510;51.068;3.872;2022-12-18T06:17:28;-4.10;98.90
70145;DHT22;57510;51.068;3.872;2022-12-18T06:19:54;-4.10;98.80
70145;DHT22;57510;51.068;3.872;2022-12-18T06:22:19;-4.10;98.80
70145;DHT22;57510;51.068;3.872;2022-12-18T06:24:45;-4.10;98.70
70145;DHT22;57510;51.068;3.872;2022-12-18T06:27:11;-4.10;98.70
70145;DHT22;57510;51.068;3.872;2022-12-18T06:29:36;-4.20;98.80
70145;DHT22;57510;51.068;3.872;2022-12-18T06:32:02;-4.10;98.80
70145;DHT22;57510;51.068;3.872;2022-12-18T06:34:28;-4.10;98.60
70145;DHT22;57510;51.068;3.872;2022-12-18T06:36:53;-4.20;98.90
70145;DHT22;57510;51.068;3.872;2022-12-18T06:39:19;-4.30;99.30
70145;DHT22;57510;51.068;3.872;2022-12-18T06:41:45;-4.30;99.60
70145;DHT22;57510;51.068;3.872;2022-12-18T06:44:11;-4.30;99.80
70145;DHT22;57510;51.068;3.872;2022-12-18T06:46:37;-4.20;99.90
70145;DHT22;57510;51.068;3.872;2022-12-18T06:49:03;-4.20;99.90
70145;DHT22;57510;51.068;3.872;2022-12-18T06:51:29;-4.10;99.90
70145;DHT22;57510;51.068;3.872;2022-12-18T06:53:54;-4.10;99.90
70145;DHT22;57510;51.068;3.872;2022-12-18T06:56:20;-4.20;99.90
70145;DHT22;57510;51.068;3.872;2022-12-18T06:58:46;-4.20;99.90
70145;DHT22;57510;51.068;3.872;2022-12-18T07:01:12;-4.20;99.90
70145;DHT22;57510;51.068;3.872;2022-12-18T07:03:38;-4.30;99.90
70145;DHT22;57510;51.068;3.872;2022-12-18T07:06:04;-4.30;99.90
70145;DHT22;57510;51.068;3.872;2022-12-18T07:08:30;-4.30;99.90
70145;DHT22;57510;51.068;3.872;2022-12-18T07:10:56;-4.30;99.90
70145;DHT22;57510;51.068;3.872;2022-12-18T07:13:22;-4.40;99.90
70145;DHT22;57510;51.068;3.872;2022-12-18T07:15:48;-4.40;99.90
70145;DHT22;57510;51.068;3.872;2022-12-18T07:18:13;-4.40;99.90
70145;DHT22;57510;51.068;3.872;2022-12-18T07:20:39;-4.40;99.90
70145;DHT22;57510;51.068;3.872;2022-12-18T07:23:05;-4.40;99.90
70145;DHT22;57510;51.068;3.872;2022-12-18T07:25:36;-4.40;99.90
70145;DHT22;57510;51.068;3.872;2022-12-18T07:28:03;-4.40;99.90
70145;DHT22;57510;51.068;3.872;2022-12-18T07:30:29;-4.40;99.90
70145;DHT22;57510;51.068;3.872;2022-12-18T07:32:54;-4.50;99.90
70145;DHT22;57510;51.068;3.872;2022-12-18T07:35:20;-4.50;99.90
70145;DHT22;57510;51.068;3.872;2022-12-18T07:37:45;-4.50;99.90
70145;DHT22;57510;51.068;3.872;2022-12-18T07:40:11;-4.50;99.90
70145;DHT22;57510;51.068;3.872;2022-12-18T07:42:37;-4.50;99.90
70145;DHT22;57510;51.068;3.872;2022-12-18T07:45:03;-4.50;99.90
70145;DHT22;57510;51.068;3.872;2022-12-18T07:47:29;-4.50;99.90
70145;DHT22;57510;51.068;3.872;2022-12-18T07:49:55;-4.50;99.90
70145;DHT22;57510;51.068;3.872;2022-12-18T07:52:20;-4.50;99.90
70145;DHT22;57510;51.068;3.872;2022-12-18T07:54:46;-4.40;99.90
70145;DHT22;57510;51.068;3.872;2022-12-18T07:57:14;-4.50;99.90
70145;DHT22;57510;51.068;3.872;2022-12-18T07:59:39;-4.40;99.90
70145;DHT22;57510;51.068;3.872;2022-12-18T08:02:07;-4.40;99.90
70145;DHT22;57510;51.068;3.872;2022-12-18T08:04:34;-4.40;99.90
70145;DHT22;57510;51.068;3.872;2022-12-18T08:07:00;-4.40;99.90
70145;DHT22;57510;51.068;3.872;2022-12-18T08:09:26;-4.40;99.90
70145;DHT22;57510;51.068;3.872;2022-12-18T08:11:52;-4.30;99.90
70145;DHT22;57510;51.068;3.872;2022-12-18T08:14:17;-4.20;99.90
70145;DHT22;57510;51.068;3.872;2022-12-18T08:16:43;-4.10;99.90
70145;DHT22;57510;51.068;3.872;2022-12-18T08:19:09;-4.10;99.90
70145;DHT22;57510;51.068;3.872;2022-12-18T08:21:35;-4.10;99.90
70145;DHT22;57510;51.068;3.872;2022-12-18T08:24:01;-4.10;99.90
70145;DHT22;57510;51.068;3.872;2022-12-18T08:26:27;-4.00;99.90
70145;DHT22;57510;51.068;3.872;2022-12-18T08:28:55;-3.90;99.90
70145;DHT22;57510;51.068;3.872;2022-12-18T08:31:21;-3.80;99.90
70145;DHT22;57510;51.068;3.872;2022-12-18T08:33:51;-3.70;99.90
70145;DHT22;57510;51.068;3.872;2022-12-18T08:36:17;-3.60;99.90
70145;DHT22;57510;51.068;3.872;2022-12-18T08:38:43;-3.50;99.90
70145;DHT22;57510;51.068;3.872;2022-12-18T08:41:12;-3.40;99.90
70145;DHT22;57510;51.068;3.872;2022-12-18T08:43:41;-3.30;99.90
70145;DHT22;57510;51.068;3.872;2022-12-18T08:46:26;-3.30;99.90
70145;DHT22;57510;51.068;3.872;2022-12-18T08:48:53;-3.20;99.90
70145;DHT22;57510;51.068;3.872;2022-12-18T08:51:21;-3.20;99.90
70145;DHT22;57510;51.068;3.872;2022-12-18T08:53:47;-3.10;99.90
70145;DHT22;57510;51.068;3.872;2022-12-18T08:56:13;-3.00;99.90
70145;DHT22;57510;51.068;3.872;2022-12-18T08:58:39;-2.90;99.90
70145;DHT22;57510;51.068;3.872;2022-12-18T09:01:06;-2.80;99.90
70145;DHT22;57510;51.068;3.872;2022-12-18T09:03:32;-2.70;99.90
70145;DHT22;57510;51.068;3.872;2022-12-18T09:05:58;-2.60;99.70
70145;DHT22;57510;51.068;3.872;2022-12-18T09:08:24;-2.50;99.80
70145;DHT22;57510;51.068;3.872;2022-12-18T09:10:51;-2.50;99.70
70145;DHT22;57510;51.068;3.872;2022-12-18T09:13:17;-2.50;99.80
70145;DHT22;57510;51.068;3.872;2022-12-18T09:15:45;-2.50;99.80
70145;DHT22;57510;51.068;3.872;2022-12-18T09:18:14;-2.40;99.90
70145;DHT22;57510;51.068;3.872;2022-12-18T09:20:40;-2.40;99.60
70145;DHT22;57510;51.068;3.872;2022-12-18T09:23:06;-2.30;99.90
70145;DHT22;57510;51.068;3.872;2022-12-18T09:25:32;-2.30;99.80
70145;DHT22;57510;51.068;3.872;2022-12-18T09:27:59;-2.30;99.70
70145;DHT22;57510;51.068;3.872;2022-12-18T09:30:25;-2.30;99.80
70145;DHT22;57510;51.068;3.872;2022-12-18T09:32:54;-2.20;99.80
70145;DHT22;57510;51.068;3.872;2022-12-18T09:35:20;-2.10;99.60
70145;DHT22;57510;51.068;3.872;2022-12-18T09:37:45;-2.10;99.60
70145;DHT22;57510;51.068;3.872;2022-12-18T09:40:16;-2.00;99.60
70145;DHT22;57510;51.068;3.872;2022-12-18T09:42:44;-1.90;99.50
70145;DHT22;57510;51.068;3.872;2022-12-18T09:45:12;-1.80;99.30
70145;DHT22;57510;51.068;3.872;2022-12-18T09:47:39;-1.70;99.20
70145;DHT22;57510;51.068;3.872;2022-12-18T09:50:13;-1.70;99.00
70145;DHT22;57510;51.068;3.872;2022-12-18T09:52:45;-1.50;99.00
70145;DHT22;57510;51.068;3.872;2022-12-18T09:55:23;-1.40;99.00
70145;DHT22;57510;51.068;3.872;2022-12-18T09:57:51;-1.30;98.90
70145;DHT22;57510;51.068;3.872;2022-12-18T10:00:19;-1.20;98.70
70145;DHT22;57510;51.068;3.872;2022-12-18T10:02:47;-1.30;98.70
70145;DHT22;57510;51.068;3.872;2022-12-18T10:05:17;-1.40;98.60
70145;DHT22;57510;51.068;3.872;2022-12-18T10:07:47;-1.40;98.80
70145;DHT22;57510;51.068;3.872;2022-12-18T10:10:21;-1.50;99.10
70145;DHT22;57510;51.068;3.872;2022-12-18T10:17:57;-1.20;99.00
70145;DHT22;57510;51.068;3.872;2022-12-18T10:25:25;-1.00;98.80
70145;DHT22;57510;51.068;3.872;2022-12-18T10:27:56;-0.90;98.80
70145;DHT22;57510;51.068;3.872;2022-12-18T10:30:22;-0.80;98.80
70145;DHT22;57510;51.068;3.872;2022-12-18T10:32:48;-0.80;98.90
70145;DHT22;57510;51.068;3.872;2022-12-18T10:35:19;-0.70;98.70
70145;DHT22;57510;51.068;3.872;2022-12-18T10:38:05;-0.70;98.50
70145;DHT22;57510;51.068;3.872;2022-12-18T10:40:31;-0.50;98.70
70145;DHT22;57510;51.068;3.872;2022-12-18T10:43:21;-0.30;98.40
70145;DHT22;57510;51.068;3.872;2022-12-18T10:45:57;-0.50;98.30
70145;DHT22;57510;51.068;3.872;2022-12-18T10:48:22;-0.50;98.50
70145;DHT22;57510;51.068;3.872;2022-12-18T10:50:49;-0.50;98.70
70145;DHT22;57510;51.068;3.872;2022-12-18T10:53:24;-0.40;98.60
70145;DHT22;57510;51.068;3.872;2022-12-18T10:55:50;-0.30;98.20
70145;DHT22;57510;51.068;3.872;2022-12-18T11:03:43;0.00;97.90
70145;DHT22;57510;51.068;3.872;2022-12-18T11:06:10;0.10;97.90
70145;DHT22;57510;51.068;3.872;2022-12-18T11:08:36;0.10;97.80
70145;DHT22;57510;51.068;3.872;2022-12-18T11:11:02;0.10;97.70
70145;DHT22;57510;51.068;3.872;2022-12-18T11:13:29;0.20;97.70
70145;DHT22;57510;51.068;3.872;2022-12-18T11:15:56;0.10;98.30
70145;DHT22;57510;51.068;3.872;2022-12-18T11:18:25;0.00;98.10
70145;DHT22;57510;51.068;3.872;2022-12-18T11:20:54;0.10;98.10
70145;DHT22;57510;51.068;3.872;2022-12-18T11:23:21;0.10;97.70
70145;DHT22;57510;51.068;3.872;2022-12-18T11:25:52;0.10;97.90
70145;DHT22;57510;51.068;3.872;2022-12-18T11:28:26;0.10;97.90
70145;DHT22;57510;51.068;3.872;2022-12-18T11:33:36;0.00;98.00
70145;DHT22;57510;51.068;3.872;2022-12-18T11:36:03;0.00;98.40
70145;DHT22;57510;51.068;3.872;2022-12-18T11:38:35;-0.10;98.60
70145;DHT22;57510;51.068;3.872;2022-12-18T11:41:04;-0.10;98.60
70145;DHT22;57510;51.068;3.872;2022-12-18T11:43:41;-0.20;99.00
70145;DHT22;57510;51.068;3.872;2022-12-18T11:46:23;-0.20;99.10
70145;DHT22;57510;51.068;3.872;2022-12-18T11:51:27;-0.10;99.10
70145;DHT22;57510;51.068;3.872;2022-12-18T11:53:54;-0.10;99.00
70145;DHT22;57510;51.068;3.872;2022-12-18T11:56:29;0.00;99.00
70145;DHT22;57510;51.068;3.872;2022-12-18T12:01:44;0.00;99.20
70145;DHT22;57510;51.068;3.872;2022-12-18T12:04:27;0.10;99.10
70145;DHT22;57510;51.068;3.872;2022-12-18T12:18:12;0.40;98.70
70145;DHT22;57510;51.068;3.872;2022-12-18T12:29:01;0.60;98.60
70145;DHT22;57510;51.068;3.872;2022-12-18T12:39:16;0.80;98.40
70145;DHT22;57510;51.068;3.872;2022-12-18T12:41:43;0.80;98.40
70145;DHT22;57510;51.068;3.872;2022-12-18T12:44:30;0.90;98.60
70145;DHT22;57510;51.068;3.872;2022-12-18T12:46:58;0.80;98.90
70145;DHT22;57510;51.068;3.872;2022-12-18T12:49:28;1.00;98.80
70145;DHT22;57510;51.068;3.872;2022-12-18T12:51:58;1.20;98.50
70145;DHT22;57510;51.068;3.872;2022-12-18T12:54:24;1.20;98.40
70145;DHT22;57510;51.068;3.872;2022-12-18T12:56:57;1.10;98.50
70145;DHT22;57510;51.068;3.872;2022-12-18T13:02:18;1.00;98.80
70145;DHT22;57510;51.068;3.872;2022-12-18T13:07:16;1.10;98.30
70145;DHT22;57510;51.068;3.872;2022-12-18T13:12:29;1.40;97.90
70145;DHT22;57510;51.068;3.872;2022-12-18T13:15:25;1.30;98.10
70145;DHT22;57510;51.068;3.872;2022-12-18T13:20:38;1.30;98.40
70145;DHT22;57510;51.068;3.872;2022-12-18T13:25:49;1.30;97.90
70145;DHT22;57510;51.068;3.872;2022-12-18T13:34:16;1.10;97.20
70145;DHT22;57510;51.068;3.872;2022-12-18T13:36:43;1.10;97.20
70145;DHT22;57510;51.068;3.872;2022-12-18T13:41:47;1.20;97.10
70145;DHT22;57510;51.068;3.872;2022-12-18T13:46:58;1.20;96.90
70145;DHT22;57510;51.068;3.872;2022-12-18T13:49:36;1.10;97.00
70145;DHT22;57510;51.068;3.872;2022-12-18T13:52:14;1.10;97.10
70145;DHT22;57510;51.068;3.872;2022-12-18T13:54:41;1.10;97.10
70145;DHT22;57510;51.068;3.872;2022-12-18T13:59:52;1.00;97.00
70145;DHT22;57510;51.068;3.872;2022-12-18T14:02:21;1.00;97.20
70145;DHT22;57510;51.068;3.872;2022-12-18T14:04:47;1.00;97.60
70145;DHT22;57510;51.068;3.872;2022-12-18T14:07:13;1.00;97.20
70145;DHT22;57510;51.068;3.872;2022-12-18T14:09:44;1.00;97.50
70145;DHT22;57510;51.068;3.872;2022-12-18T14:12:30;1.00;97.20
70145;DHT22;57510;51.068;3.872;2022-12-18T14:17:50;1.20;97.20
70145;DHT22;57510;51.068;3.872;2022-12-18T14:20:17;1.20;96.80
70145;DHT22;57510;51.068;3.872;2022-12-18T14:22:46;1.20;97.10
70145;DHT22;57510;51.068;3.872;2022-12-18T14:27:42;1.10;97.10
70145;DHT22;57510;51.068;3.872;2022-12-18T14:30:27;1.10;97.20
70145;DHT22;57510;51.068;3.872;2022-12-18T14:35:27;1.10;97.40
70145;DHT22;57510;51.068;3.872;2022-12-18T14:37:53;1.00;97.50
70145;DHT22;57510;51.068;3.872;2022-12-18T14:40:19;1.00;97.50
70145;DHT22;57510;51.068;3.872;2022-12-18T14:42:45;1.00;97.30
70145;DHT22;57510;51.068;3.872;2022-12-18T14:47:56;0.90;97.70
70145;DHT22;57510;51.068;3.872;2022-12-18T14:50:21;1.00;97.50
70145;DHT22;57510;51.068;3.872;2022-12-18T14:52:47;1.00;97.70
70145;DHT22;57510;51.068;3.872;2022-12-18T14:55:16;0.90;97.60
70145;DHT22;57510;51.068;3.872;2022-12-18T14:57:42;1.00;97.60
70145;DHT22;57510;51.068;3.872;2022-12-18T15:00:17;1.00;97.70
70145;DHT22;57510;51.068;3.872;2022-12-18T15:02:43;1.00;97.30
70145;DHT22;57510;51.068;3.872;2022-12-18T15:07:42;1.00;97.40
70145;DHT22;57510;51.068;3.872;2022-12-18T15:12:41;1.10;97.40
70145;DHT22;57510;51.068;3.872;2022-12-18T15:18:27;1.00;97.30
70145;DHT22;57510;51.068;3.872;2022-12-18T15:25:42;1.00;97.80
70145;DHT22;57510;51.068;3.872;2022-12-18T15:28:24;1.00;97.50
70145;DHT22;57510;51.068;3.872;2022-12-18T15:33:26;1.00;97.50
70145;DHT22;57510;51.068;3.872;2022-12-18T15:35:56;1.00;97.50
70145;DHT22;57510;51.068;3.872;2022-12-18T15:38:22;1.00;97.30
70145;DHT22;57510;51.068;3.872;2022-12-18T15:40:47;0.90;97.60
70145;DHT22;57510;51.068;3.872;2022-12-18T15:43:13;1.00;97.70
70145;DHT22;57510;51.068;3.872;2022-12-18T15:45:57;1.00;97.60
70145;DHT22;57510;51.068;3.872;2022-12-18T15:48:23;0.90;97.80
70145;DHT22;57510;51.068;3.872;2022-12-18T15:50:50;0.90;97.80
70145;DHT22;57510;51.068;3.872;2022-12-18T15:53:16;1.00;97.70
70145;DHT22;57510;51.068;3.872;2022-12-18T15:55:43;1.00;97.50
70145;DHT22;57510;51.068;3.872;2022-12-18T15:58:29;1.10;97.50
70145;DHT22;57510;51.068;3.872;2022-12-18T16:00:55;1.10;97.40
70145;DHT22;57510;51.068;3.872;2022-12-18T16:03:27;1.10;97.40
70145;DHT22;57510;51.068;3.872;2022-12-18T16:05:53;1.20;97.40
70145;DHT22;57510;51.068;3.872;2022-12-18T16:08:19;1.20;97.40
70145;DHT22;57510;51.068;3.872;2022-12-18T16:10:44;1.20;97.60
70145;DHT22;57510;51.068;3.872;2022-12-18T16:13:10;1.20;97.60
70145;DHT22;57510;51.068;3.872;2022-12-18T16:15:37;1.20;97.50
70145;DHT22;57510;51.068;3.872;2022-12-18T16:18:02;1.30;97.40
70145;DHT22;57510;51.068;3.872;2022-12-18T16:20:28;1.30;97.50
70145;DHT22;57510;51.068;3.872;2022-12-18T16:22:53;1.30;97.30
70145;DHT22;57510;51.068;3.872;2022-12-18T16:25:23;1.30;97.30
70145;DHT22;57510;51.068;3.872;2022-12-18T16:27:50;1.30;97.40
70145;DHT22;57510;51.068;3.872;2022-12-18T16:30:17;1.30;97.40
70145;DHT22;57510;51.068;3.872;2022-12-18T16:32:42;1.30;97.40
70145;DHT22;57510;51.068;3.872;2022-12-18T16:35:09;1.30;97.50
70145;DHT22;57510;51.068;3.872;2022-12-18T16:37:35;1.30;97.40
70145;DHT22;57510;51.068;3.872;2022-12-18T16:40:01;1.30;97.50
70145;DHT22;57510;51.068;3.872;2022-12-18T16:42:26;1.40;97.30
70145;DHT22;57510;51.068;3.872;2022-12-18T16:44:53;1.40;97.50
70145;DHT22;57510;51.068;3.872;2022-12-18T16:47:19;1.40;97.30
70145;DHT22;57510;51.068;3.872;2022-12-18T16:49:44;1.40;97.50
70145;DHT22;57510;51.068;3.872;2022-12-18T16:52:10;1.30;97.70
70145;DHT22;57510;51.068;3.872;2022-12-18T16:54:36;1.30;97.70
70145;DHT22;57510;51.068;3.872;2022-12-18T16:57:02;1.40;97.40
70145;DHT22;57510;51.068;3.872;2022-12-18T16:59:28;1.40;97.40
70145;DHT22;57510;51.068;3.872;2022-12-18T17:01:53;1.40;97.50
70145;DHT22;57510;51.068;3.872;2022-12-18T17:04:19;1.40;97.50
70145;DHT22;57510;51.068;3.872;2022-12-18T17:06:45;1.40;97.80
70145;DHT22;57510;51.068;3.872;2022-12-18T17:09:16;1.40;98.10
70145;DHT22;57510;51.068;3.872;2022-12-18T17:11:45;1.40;98.40
70145;DHT22;57510;51.068;3.872;2022-12-18T17:14:15;1.40;98.40
70145;DHT22;57510;51.068;3.872;2022-12-18T17:16:41;1.50;98.50
70145;DHT22;57510;51.068;3.872;2022-12-18T17:19:07;1.60;98.80
70145;DHT22;57510;51.068;3.872;2022-12-18T17:21:33;1.60;98.90
70145;DHT22;57510;51.068;3.872;2022-12-18T17:24:01;1.60;99.20
70145;DHT22;57510;51.068;3.872;2022-12-18T17:26:27;1.70;99.40
70145;DHT22;57510;51.068;3.872;2022-12-18T17:28:54;1.70;99.60
70145;DHT22;57510;51.068;3.872;2022-12-18T17:31:20;1.60;99.60
70145;DHT22;57510;51.068;3.872;2022-12-18T17:33:46;1.70;99.80
70145;DHT22;57510;51.068;3.872;2022-12-18T17:36:13;1.70;99.70
70145;DHT22;57510;51.068;3.872;2022-12-18T17:38:42;1.60;99.90
70145;DHT22;57510;51.068;3.872;2022-12-18T17:41:09;1.70;99.90
70145;DHT22;57510;51.068;3.872;2022-12-18T17:43:36;1.70;99.90
70145;DHT22;57510;51.068;3.872;2022-12-18T17:46:04;1.70;99.90
70145;DHT22;57510;51.068;3.872;2022-12-18T17:48:30;1.70;99.90
70145;DHT22;57510;51.068;3.872;2022-12-18T17:50:59;1.70;99.90